Time;durP1;ratioP1;P1;durP2;ratioP2;P2;SDS_P1;SDS_P2;PMS_P1;PMS_P2;Temp;Humidity;BMP_temperature;BMP_pressure;BME280_temperature;BME280_humidity;BME280_pressure;Samples;Min_cycle;Max_cycle;Signal;HPM_P1;HPM_P2
2022/03/27 00:01:16;;;;;;;103.40;60.30;;;7.10;71.90;;;;;;5014134;28;20105;-71
2022/03/27 00:03:41;;;;;;;97.93;57.40;;;7.10;72.00;;;;;;5014673;28;20026;-73
2022/03/27 00:06:10;;;;;;;98.85;54.17;;;7.10;72.20;;;;;;5014169;28;20029;-72
2022/03/27 00:08:38;;;;;;;96.68;52.58;;;7.10;72.30;;;;;;5012774;28;20392;-72
2022/03/27 00:13:49;;;;;;;76.38;45.17;;;7.10;72.70;;;;;;5014111;28;20042;-73
2022/03/27 00:16:14;;;;;;;72.60;45.13;;;7.20;72.30;;;;;;5013915;28;20021;-73
2022/03/27 00:18:41;;;;;;;79.20;48.33;;;7.20;72.30;;;;;;5014156;28;20057;-73
2022/03/27 00:21:09;;;;;;;72.28;42.38;;;7.10;72.30;;;;;;5013811;28;20068;-74
2022/03/27 00:23:36;;;;;;;74.43;43.05;;;7.10;72.40;;;;;;5013855;28;20069;-73
2022/03/27 00:26:02;;;;;;;75.55;44.47;;;7.20;72.60;;;;;;5014067;28;20049;-73
2022/03/27 00:28:32;;;;;;;78.00;44.92;;;7.20;72.50;;;;;;5013510;28;20201;-73
2022/03/27 00:31:04;;;;;;;65.95;42.58;;;7.20;72.40;;;;;;5013764;28;20612;-73
2022/03/27 00:33:31;;;;;;;73.20;41.90;;;7.10;72.50;;;;;;5013933;28;20746;-73
2022/03/27 00:35:59;;;;;;;78.38;44.40;;;7.10;72.40;;;;;;5013627;28;20038;-73
2022/03/27 00:38:25;;;;;;;75.07;44.65;;;7.10;73.00;;;;;;5013658;28;20018;-73
2022/03/27 00:40:55;;;;;;;76.63;45.28;;;7.00;73.10;;;;;;5012727;28;20022;-73
2022/03/27 00:43:23;;;;;;;71.90;43.35;;;7.10;73.00;;;;;;5013615;28;20045;-74
2022/03/27 00:45:50;;;;;;;75.53;46.03;;;7.10;73.20;;;;;;5013459;28;20042;-72
2022/03/27 00:48:20;;;;;;;72.13;46.13;;;7.20;73.00;;;;;;5013623;28;20061;-72
2022/03/27 00:50:48;;;;;;;66.68;41.83;;;7.10;73.00;;;;;;5013229;28;20033;-73
2022/03/27 00:53:15;;;;;;;63.92;39.05;;;7.10;72.60;;;;;;5013193;28;20030;-71
2022/03/27 00:55:41;;;;;;;70.93;39.05;;;7.10;72.50;;;;;;5013554;28;20026;-73
2022/03/27 00:58:10;;;;;;;66.18;37.25;;;7.10;72.70;;;;;;5013157;28;20487;-71
2022/03/27 01:00:42;;;;;;;64.18;36.97;;;7.10;72.70;;;;;;5013314;28;20102;-71
2022/03/27 01:03:11;;;;;;;58.28;36.03;;;7.00;73.20;;;;;;5012793;28;20030;-71
2022/03/27 01:05:38;;;;;;;62.65;38.95;;;7.00;73.40;;;;;;5013159;28;20026;-70
2022/03/27 01:08:08;;;;;;;64.03;38.00;;;7.00;73.40;;;;;;5012998;28;20120;-71
2022/03/27 01:10:34;;;;;;;66.03;36.50;;;6.80;73.30;;;;;;5013506;28;20509;-71
2022/03/27 01:13:31;;;;;;;72.05;43.03;;;6.90;73.40;;;;;;5013254;28;20076;-73
2022/03/27 01:15:58;;;;;;;95.65;49.83;;;6.80;73.80;;;;;;5011843;28;20030;-72
2022/03/27 01:18:25;;;;;;;77.60;44.53;;;6.70;73.90;;;;;;5012830;28;20029;-73
2022/03/27 01:20:53;;;;;;;65.55;40.15;;;6.70;74.40;;;;;;5013033;28;20037;-73
2022/03/27 01:23:19;;;;;;;64.50;39.08;;;6.60;74.50;;;;;;5013259;28;20033;-73
2022/03/27 01:25:45;;;;;;;66.80;40.80;;;6.60;74.70;;;;;;5012870;28;20388;-72
2022/03/27 01:28:15;;;;;;;61.97;36.67;;;6.60;74.50;;;;;;5012590;28;20034;-71
2022/03/27 01:30:41;;;;;;;64.32;37.58;;;6.50;74.80;;;;;;5012750;28;20101;-72
2022/03/27 01:33:11;;;;;;;67.00;40.08;;;6.50;74.80;;;;;;5011663;28;20092;-73
2022/03/27 01:35:38;;;;;;;72.40;40.17;;;6.50;75.40;;;;;;5012957;28;20442;-72
2022/03/27 01:38:03;;;;;;;66.20;39.40;;;6.50;75.50;;;;;;5012795;28;20029;-71
2022/03/27 01:40:29;;;;;;;70.32;41.72;;;6.50;76.00;;;;;;5012748;28;20494;-72
2022/03/27 01:42:55;;;;;;;69.30;39.65;;;6.50;76.20;;;;;;5012737;28;20018;-72
2022/03/27 01:45:25;;;;;;;68.28;36.70;;;6.40;76.50;;;;;;5012479;28;20439;-72
2022/03/27 01:47:51;;;;;;;58.38;37.28;;;6.40;76.00;;;;;;5012305;28;20037;-73
2022/03/27 01:50:17;;;;;;;62.10;36.10;;;6.40;76.30;;;;;;5012422;28;20026;-73
2022/03/27 01:52:43;;;;;;;72.22;38.88;;;6.40;76.60;;;;;;5012292;28;20033;-72
2022/03/27 01:55:13;;;;;;;65.88;37.25;;;6.10;76.60;;;;;;5012621;28;20427;-72
2022/03/27 01:57:41;;;;;;;57.50;32.88;;;6.00;77.50;;;;;;5012193;28;20053;-72
2022/03/27 02:00:09;;;;;;;52.63;28.88;;;6.00;78.10;;;;;;5012184;28;20038;-73
2022/03/27 02:02:40;;;;;;;51.97;31.30;;;6.00;78.00;;;;;;5012741;28;20041;-72
2022/03/27 02:05:06;;;;;;;60.97;33.95;;;6.00;79.00;;;;;;5012524;28;20034;-72
2022/03/27 02:07:42;;;;;;;47.38;29.85;;;6.00;79.50;;;;;;5012043;28;20070;-72
2022/03/27 02:10:09;;;;;;;49.80;28.83;;;6.00;79.70;;;;;;5012347;28;20392;-72
2022/03/27 02:12:35;;;;;;;55.60;29.27;;;6.00;79.90;;;;;;5011971;28;20672;-72
2022/03/27 02:15:04;;;;;;;45.45;28.33;;;5.90;80.50;;;;;;5011859;28;20057;-72
2022/03/27 02:17:30;;;;;;;46.00;27.08;;;5.90;81.80;;;;;;5012175;28;20026;-73
2022/03/27 02:19:56;;;;;;;48.20;25.77;;;5.80;81.20;;;;;;5011864;28;20041;-72
2022/03/27 02:22:22;;;;;;;40.20;25.50;;;5.80;82.10;;;;;;5011760;28;20093;-73
2022/03/27 02:24:48;;;;;;;38.63;23.02;;;5.80;82.80;;;;;;5011859;28;20041;-70
2022/03/27 02:27:14;;;;;;;41.90;24.70;;;5.80;83.30;;;;;;5011660;28;20053;-72
2022/03/27 02:29:40;;;;;;;37.53;19.35;;;5.80;83.40;;;;;;5011671;28;20072;-72
2022/03/27 02:32:08;;;;;;;38.00;22.60;;;5.90;82.90;;;;;;5011701;28;20017;-72
2022/03/27 02:34:33;;;;;;;35.40;19.20;;;5.90;83.80;;;;;;5012115;28;20034;-72
2022/03/27 02:36:59;;;;;;;29.13;17.63;;;6.00;83.40;;;;;;5011465;28;20097;-72
2022/03/27 02:39:25;;;;;;;31.88;16.85;;;6.10;82.60;;;;;;5011908;28;20528;-71
2022/03/27 02:41:51;;;;;;;33.03;17.13;;;6.00;82.10;;;;;;5011892;28;20052;-71
2022/03/27 02:44:17;;;;;;;30.52;16.60;;;6.10;81.90;;;;;;5011058;28;20509;-71
2022/03/27 02:46:43;;;;;;;30.27;16.27;;;6.10;82.00;;;;;;5011832;28;20025;-71
2022/03/27 02:49:09;;;;;;;32.08;18.23;;;6.10;81.70;;;;;;5011369;28;20153;-72
2022/03/27 02:51:35;;;;;;;38.50;21.13;;;6.10;81.40;;;;;;5011477;28;20025;-71
2022/03/27 02:54:01;;;;;;;33.10;18.83;;;6.10;81.40;;;;;;5011402;28;20037;-71
2022/03/27 02:56:26;;;;;;;35.67;19.35;;;6.10;82.00;;;;;;5011235;28;20156;-72
2022/03/27 02:58:52;;;;;;;33.20;16.63;;;6.20;82.10;;;;;;5010949;28;20040;-72
2022/03/27 03:01:18;;;;;;;35.83;16.52;;;6.20;82.20;;;;;;5011009;28;20092;-72
2022/03/27 03:03:44;;;;;;;28.35;15.60;;;6.20;81.50;;;;;;5012024;28;20026;-71
2022/03/27 03:06:10;;;;;;;27.60;16.10;;;6.20;81.60;;;;;;5015013;28;20029;-72
2022/03/27 03:08:38;;;;;;;29.63;15.95;;;6.20;81.40;;;;;;5015091;28;20030;-72
2022/03/27 03:11:04;;;;;;;27.05;15.65;;;6.20;81.80;;;;;;5015230;28;20026;-71
2022/03/27 03:13:30;;;;;;;31.73;15.30;;;6.20;81.70;;;;;;5015127;28;20026;-72
2022/03/27 03:15:57;;;;;;;31.85;15.75;;;6.20;81.90;;;;;;5015327;28;20060;-72
2022/03/27 03:18:25;;;;;;;29.23;15.82;;;6.20;81.90;;;;;;5015378;28;20057;-70
2022/03/27 03:20:51;;;;;;;30.58;15.48;;;6.20;82.00;;;;;;5015145;28;20022;-72
2022/03/27 03:23:17;;;;;;;29.95;15.80;;;6.20;81.90;;;;;;5015149;28;20037;-72
2022/03/27 03:25:43;;;;;;;31.40;15.80;;;6.20;82.50;;;;;;5015140;28;20048;-72
2022/03/27 03:28:09;;;;;;;28.77;16.50;;;6.20;82.30;;;;;;5014894;28;20033;-73
2022/03/27 03:30:35;;;;;;;41.80;23.58;;;6.10;82.30;;;;;;5014662;28;20061;-71
2022/03/27 03:33:01;;;;;;;36.65;18.08;;;6.00;82.80;;;;;;5015003;28;20515;-72
2022/03/27 03:35:27;;;;;;;40.47;23.33;;;6.00;83.10;;;;;;5014972;28;20022;-71
2022/03/27 03:37:54;;;;;;;37.67;21.63;;;5.90;83.50;;;;;;5014687;28;20383;-71
2022/03/27 03:40:19;;;;;;;33.38;16.02;;;6.00;83.90;;;;;;5014807;28;20018;-70
2022/03/27 03:42:45;;;;;;;28.65;16.83;;;6.00;84.10;;;;;;5014661;28;20464;-72
2022/03/27 03:45:11;;;;;;;33.88;18.48;;;6.00;84.10;;;;;;5014643;28;20046;-69
2022/03/27 03:47:37;;;;;;;28.83;15.25;;;6.00;84.00;;;;;;5014706;28;20068;-71
2022/03/27 03:50:05;;;;;;;30.67;15.55;;;6.00;84.20;;;;;;5014463;28;20029;-70
2022/03/27 03:52:31;;;;;;;30.05;15.40;;;6.00;84.20;;;;;;5014334;28;20038;-70
2022/03/27 03:54:57;;;;;;;28.88;16.45;;;6.00;84.20;;;;;;5014545;28;20357;-71
2022/03/27 03:57:23;;;;;;;30.50;14.75;;;6.00;84.80;;;;;;5013891;28;20033;-71
2022/03/27 03:59:49;;;;;;;23.15;14.38;;;5.90;85.10;;;;;;5013889;28;20384;-71
2022/03/27 04:02:18;;;;;;;25.48;15.20;;;5.90;86.20;;;;;;5013699;28;20022;-72
2022/03/27 04:04:45;;;;;;;29.65;15.80;;;5.90;86.20;;;;;;5014313;28;20030;-71
2022/03/27 04:07:10;;;;;;;25.48;15.63;;;5.90;86.90;;;;;;5013961;28;20032;-71
2022/03/27 04:09:36;;;;;;;34.28;16.52;;;5.80;87.40;;;;;;5013904;28;20033;-72
2022/03/27 04:12:02;;;;;;;28.25;16.10;;;5.80;87.90;;;;;;5014126;28;20048;-72
2022/03/27 04:14:36;;;;;;;26.33;14.93;;;5.80;89.00;;;;;;5014392;28;20018;-71
2022/03/27 04:17:03;;;;;;;29.45;15.98;;;5.80;89.00;;;;;;5014077;28;20030;-71
2022/03/27 04:19:29;;;;;;;34.63;17.25;;;5.70;90.00;;;;;;5013859;28;20088;-72
2022/03/27 04:21:56;;;;;;;33.10;17.83;;;5.70;90.30;;;;;;5013916;28;20033;-72
2022/03/27 04:24:22;;;;;;;28.30;16.85;;;5.70;90.50;;;;;;5013683;28;20026;-72
2022/03/27 04:26:48;;;;;;;32.08;17.45;;;5.60;90.30;;;;;;5013693;28;20105;-72
2022/03/27 04:29:13;;;;;;;31.83;16.35;;;5.60;90.80;;;;;;5013506;28;20507;-71
2022/03/27 04:31:40;;;;;;;35.05;16.83;;;5.60;90.90;;;;;;5013414;28;20034;-72
2022/03/27 04:34:07;;;;;;;31.63;17.58;;;5.60;90.80;;;;;;5013629;28;20026;-71
2022/03/27 04:36:32;;;;;;;44.90;18.65;;;5.60;91.30;;;;;;5013299;28;20033;-71
2022/03/27 04:38:58;;;;;;;37.00;18.05;;;5.70;91.30;;;;;;5013681;28;20022;-71
2022/03/27 04:41:24;;;;;;;31.60;17.42;;;5.70;90.90;;;;;;5013484;28;20068;-71
2022/03/27 04:43:50;;;;;;;34.67;17.42;;;5.80;91.30;;;;;;5013209;28;20117;-72
2022/03/27 04:46:17;;;;;;;37.97;17.83;;;5.80;91.10;;;;;;5013305;28;20026;-70
2022/03/27 04:48:44;;;;;;;33.42;18.38;;;5.80;90.90;;;;;;5013647;28;20041;-72
2022/03/27 04:51:11;;;;;;;37.63;20.25;;;6.00;91.80;;;;;;5013196;28;20446;-72
2022/03/27 04:53:38;;;;;;;40.40;21.38;;;6.20;91.00;;;;;;5013381;28;20033;-71
2022/03/27 04:56:05;;;;;;;33.85;19.10;;;6.50;90.40;;;;;;5013422;28;20030;-71
2022/03/27 04:58:31;;;;;;;33.03;19.67;;;6.80;88.40;;;;;;5013198;28;20470;-72
2022/03/27 05:00:57;;;;;;;40.53;18.48;;;7.10;87.70;;;;;;5012942;28;20022;-71
2022/03/27 05:03:23;;;;;;;37.15;18.58;;;7.30;84.60;;;;;;5013097;28;20033;-72
2022/03/27 05:05:49;;;;;;;35.30;18.95;;;7.80;84.60;;;;;;5013124;28;20488;-72
2022/03/27 05:08:15;;;;;;;37.90;19.52;;;8.20;81.80;;;;;;5012702;28;20029;-72
2022/03/27 05:10:41;;;;;;;27.63;16.25;;;8.40;79.10;;;;;;5012831;28;20100;-72
2022/03/27 05:13:07;;;;;;;27.80;16.20;;;8.70;77.80;;;;;;5012933;28;20030;-72
2022/03/27 05:15:33;;;;;;;35.63;18.38;;;9.10;76.00;;;;;;5012834;28;20536;-71
2022/03/27 05:18:00;;;;;;;28.67;16.83;;;9.50;75.00;;;;;;5013121;28;20383;-72
2022/03/27 05:20:28;;;;;;;29.80;17.23;;;9.70;74.60;;;;;;5013049;28;20052;-72
2022/03/27 05:22:55;;;;;;;31.70;18.33;;;10.00;73.70;;;;;;5012755;28;20476;-71
2022/03/27 05:25:21;;;;;;;37.75;16.50;;;10.10;72.70;;;;;;5012939;28;20097;-72
2022/03/27 05:27:53;;;;;;;27.23;15.18;;;10.70;71.50;;;;;;5011794;28;20029;-73
2022/03/27 05:30:23;;;;;;;23.65;15.00;;;10.60;69.50;;;;;;5011167;28;20053;-72
2022/03/27 05:32:50;;;;;;;27.98;14.98;;;11.10;69.90;;;;;;5012688;28;20029;-72
2022/03/27 05:35:17;;;;;;;28.73;15.27;;;11.20;69.40;;;;;;5011906;28;20030;-72
2022/03/27 05:37:44;;;;;;;24.67;13.10;;;11.40;68.00;;;;;;5012524;28;20056;-71
2022/03/27 05:40:14;;;;;;;32.83;13.68;;;11.70;67.10;;;;;;5012562;28;20026;-72
2022/03/27 05:42:40;;;;;;;29.40;13.07;;;12.10;67.40;;;;;;5012004;28;20400;-72
2022/03/27 05:45:07;;;;;;;19.13;11.32;;;12.00;66.50;;;;;;5012141;28;20037;-72
2022/03/27 05:47:34;;;;;;;19.50;12.10;;;11.00;66.70;;;;;;5011933;28;20117;-72
2022/03/27 05:50:00;;;;;;;19.90;10.93;;;10.50;67.90;;;;;;5012586;28;20033;-72
2022/03/27 05:52:27;;;;;;;20.17;10.88;;;10.30;69.20;;;;;;5012176;28;20058;-72
2022/03/27 05:54:53;;;;;;;20.80;10.93;;;9.90;69.90;;;;;;5012033;28;20033;-72
2022/03/27 05:57:19;;;;;;;26.45;11.82;;;9.70;70.60;;;;;;5011672;28;20486;-72
2022/03/27 05:59:46;;;;;;;21.83;12.02;;;9.70;71.50;;;;;;5012022;28;20109;-72
2022/03/27 06:02:12;;;;;;;21.67;11.98;;;9.70;72.20;;;;;;5012234;28;20073;-72
2022/03/27 06:04:39;;;;;;;21.02;11.95;;;9.90;72.60;;;;;;5012048;28;20163;-72
2022/03/27 06:07:05;;;;;;;22.17;11.98;;;10.00;73.60;;;;;;5012041;28;20026;-71
2022/03/27 06:09:32;;;;;;;22.42;12.30;;;10.10;73.60;;;;;;5011819;28;20423;-72
2022/03/27 06:11:59;;;;;;;23.25;11.52;;;10.30;73.70;;;;;;5012183;28;20103;-73
2022/03/27 06:14:25;;;;;;;23.65;11.75;;;10.50;73.70;;;;;;5011923;28;20439;-72
2022/03/27 06:16:55;;;;;;;22.88;12.00;;;10.60;73.10;;;;;;5012206;28;20026;-72
2022/03/27 06:19:22;;;;;;;22.67;12.75;;;10.80;72.10;;;;;;5029294;28;20069;-72
2022/03/27 06:21:48;;;;;;;27.48;13.48;;;11.00;73.20;;;;;;5006922;28;20033;-71
2022/03/27 06:24:14;;;;;;;28.70;13.38;;;11.20;73.20;;;;;;4991897;28;20022;-73
2022/03/27 06:26:41;;;;;;;26.48;14.57;;;11.40;71.80;;;;;;5004664;28;20464;-72
2022/03/27 06:29:10;;;;;;;22.35;13.88;;;11.70;71.60;;;;;;5011306;28;20555;-72
2022/03/27 06:31:37;;;;;;;26.13;14.75;;;11.90;71.80;;;;;;4995657;28;20380;-72
2022/03/27 06:34:03;;;;;;;29.25;15.85;;;11.90;70.30;;;;;;5005269;28;20018;-70
2022/03/27 06:36:29;;;;;;;23.38;15.80;;;12.20;70.30;;;;;;5010826;28;20613;-71
2022/03/27 06:38:55;;;;;;;24.90;16.38;;;12.40;70.00;;;;;;5012547;28;20069;-72
2022/03/27 06:41:21;;;;;;;25.52;16.45;;;12.50;68.60;;;;;;5011695;28;20077;-70
2022/03/27 06:43:47;;;;;;;21.48;14.57;;;12.70;67.60;;;;;;4995579;28;20088;-70
2022/03/27 06:46:16;;;;;;;26.17;15.73;;;12.70;66.30;;;;;;4996042;28;20692;-72
2022/03/27 06:48:46;;;;;;;30.55;15.82;;;13.00;67.80;;;;;;4995819;28;20435;-73
2022/03/27 06:51:13;;;;;;;28.13;17.83;;;13.10;66.50;;;;;;4996381;28;20109;-72
2022/03/27 06:53:39;;;;;;;26.95;17.35;;;13.20;64.30;;;;;;5002976;28;20030;-72
2022/03/27 06:56:06;;;;;;;29.73;15.32;;;13.20;64.30;;;;;;5015059;28;20025;-71
2022/03/27 06:58:33;;;;;;;30.33;16.23;;;13.50;63.60;;;;;;5014545;28;20061;-68
2022/03/27 07:03:43;;;;;;;22.05;13.55;;;13.50;62.80;;;;;;4995977;28;20372;-71
2022/03/27 07:06:10;;;;;;;23.58;14.75;;;13.50;62.10;;;;;;4994981;28;20033;-71
2022/03/27 07:08:37;;;;;;;24.38;14.10;;;13.60;63.20;;;;;;4994774;28;20042;-71
2022/03/27 07:11:03;;;;;;;31.95;16.38;;;13.80;64.10;;;;;;4995089;28;20023;-72
2022/03/27 07:13:30;;;;;;;24.92;12.77;;;13.90;62.30;;;;;;4995461;28;20560;-72
2022/03/27 07:15:56;;;;;;;21.23;13.30;;;13.90;61.30;;;;;;4995535;28;20022;-71
2022/03/27 07:18:22;;;;;;;23.90;12.95;;;14.00;62.20;;;;;;4995516;28;20042;-71
2022/03/27 07:20:48;;;;;;;25.40;13.48;;;14.10;62.90;;;;;;4995097;28;20085;-72
2022/03/27 07:23:18;;;;;;;26.55;13.13;;;14.30;63.70;;;;;;4995283;28;20396;-71
2022/03/27 07:25:46;;;;;;;26.30;12.70;;;14.50;62.60;;;;;;4995477;28;20354;-70
2022/03/27 07:28:13;;;;;;;29.65;14.25;;;14.60;61.80;;;;;;4995357;28;20046;-71
2022/03/27 07:30:41;;;;;;;23.95;13.88;;;14.60;61.60;;;;;;4999196;28;20026;-74
2022/03/27 07:33:07;;;;;;;27.08;14.15;;;14.70;61.50;;;;;;5014450;28;20018;-71
2022/03/27 07:35:34;;;;;;;31.10;14.60;;;14.90;62.00;;;;;;5006148;28;20018;-71
2022/03/27 07:38:00;;;;;;;25.08;14.93;;;14.80;62.20;;;;;;4994637;28;20030;-73
2022/03/27 07:40:27;;;;;;;26.27;15.00;;;15.00;61.20;;;;;;4994761;28;20499;-72
2022/03/27 07:42:54;;;;;;;27.27;16.00;;;14.90;62.80;;;;;;4994996;28;20041;-71
2022/03/27 07:45:22;;;;;;;26.83;14.65;;;15.10;61.90;;;;;;4995097;28;20082;-71
2022/03/27 07:47:50;;;;;;;24.10;14.50;;;15.00;60.70;;;;;;4994921;28;20100;-67
2022/03/27 07:50:19;;;;;;;30.67;15.30;;;15.20;61.00;;;;;;4994226;28;20030;-71
2022/03/27 07:52:45;;;;;;;28.77;14.77;;;15.20;60.60;;;;;;4994922;28;20031;-71
2022/03/27 07:55:14;;;;;;;27.73;14.75;;;15.30;60.70;;;;;;5009243;28;20053;-71
2022/03/27 07:57:41;;;;;;;25.85;14.77;;;15.40;60.70;;;;;;4994717;28;20472;-73
2022/03/27 08:00:10;;;;;;;27.02;14.85;;;15.50;61.10;;;;;;4994923;28;20117;-72
2022/03/27 08:02:41;;;;;;;25.08;14.93;;;15.60;60.30;;;;;;4996627;28;20531;-71
2022/03/27 08:05:08;;;;;;;27.73;15.48;;;15.60;60.30;;;;;;5014410;28;20034;-71
2022/03/27 08:07:34;;;;;;;27.83;15.35;;;15.70;59.10;;;;;;5013802;28;20034;-70
2022/03/27 08:10:01;;;;;;;24.38;13.35;;;15.70;59.20;;;;;;5014135;28;20026;-71
2022/03/27 08:12:27;;;;;;;25.08;14.63;;;15.90;59.40;;;;;;5013966;28;20032;-72
2022/03/27 08:14:53;;;;;;;27.60;16.25;;;16.20;59.90;;;;;;5014205;28;20148;-72
2022/03/27 08:17:20;;;;;;;26.73;13.77;;;16.10;60.00;;;;;;5013976;28;20022;-72
2022/03/27 08:19:47;;;;;;;27.35;15.40;;;16.20;58.90;;;;;;5014006;28;20033;-71
2022/03/27 08:22:13;;;;;;;25.52;14.52;;;16.30;58.60;;;;;;5004813;28;20018;-71
2022/03/27 08:24:40;;;;;;;25.00;14.10;;;16.40;59.00;;;;;;5008468;28;20049;-73
2022/03/27 08:27:07;;;;;;;28.30;14.70;;;16.50;58.80;;;;;;5013223;28;20109;-70
2022/03/27 08:29:41;;;;;;;30.75;14.63;;;16.50;59.10;;;;;;5012206;28;20095;-69
2022/03/27 08:32:12;;;;;;;26.73;14.63;;;16.50;59.10;;;;;;4996232;28;20069;-71
2022/03/27 08:34:40;;;;;;;33.45;15.80;;;16.50;58.40;;;;;;4996947;28;20099;-70
2022/03/27 08:37:09;;;;;;;30.17;14.48;;;16.30;59.30;;;;;;5013493;28;20056;-70
2022/03/27 08:39:36;;;;;;;24.10;13.57;;;16.50;58.60;;;;;;5005929;28;20029;-71
2022/03/27 08:42:02;;;;;;;25.88;14.95;;;16.60;59.20;;;;;;5001856;28;20026;-70
2022/03/27 08:44:30;;;;;;;26.10;14.85;;;16.80;60.00;;;;;;4993796;28;20043;-70
2022/03/27 08:46:58;;;;;;;24.73;15.25;;;17.00;57.80;;;;;;4994145;28;20023;-70
2022/03/27 08:49:29;;;;;;;24.42;13.38;;;17.00;58.60;;;;;;4993802;28;20049;-70
2022/03/27 08:52:03;;;;;;;26.08;14.75;;;17.10;58.10;;;;;;4993999;28;20022;-70
2022/03/27 08:54:43;;;;;;;29.20;14.80;;;17.20;59.20;;;;;;4990580;28;20029;-71
2022/03/27 08:57:28;;;;;;;25.02;14.05;;;17.30;58.80;;;;;;4993296;28;20564;-70
2022/03/27 08:59:56;;;;;;;25.95;14.07;;;17.40;57.60;;;;;;5008667;28;20045;-70
2022/03/27 09:02:25;;;;;;;24.90;15.25;;;17.50;57.60;;;;;;4992708;28;20019;-69
2022/03/27 09:04:53;;;;;;;26.17;15.07;;;17.40;57.30;;;;;;4993974;28;20040;-70
2022/03/27 09:07:38;;;;;;;25.02;14.65;;;17.40;59.50;;;;;;4993792;28;20026;-71
2022/03/27 09:10:10;;;;;;;24.65;15.73;;;17.60;58.90;;;;;;4993373;28;20064;-71
2022/03/27 09:12:36;;;;;;;27.65;15.57;;;17.50;58.40;;;;;;4993142;28;20065;-70
2022/03/27 09:15:07;;;;;;;26.02;15.60;;;17.60;59.60;;;;;;4991857;28;20035;-71
2022/03/27 09:17:33;;;;;;;32.33;16.40;;;18.00;59.20;;;;;;4993284;28;20054;-69
2022/03/27 09:19:59;;;;;;;25.40;15.30;;;18.10;59.30;;;;;;4994307;28;20057;-71
2022/03/27 09:22:32;;;;;;;26.95;15.25;;;18.20;59.40;;;;;;5005077;28;20029;-71
2022/03/27 09:25:00;;;;;;;26.25;13.50;;;18.50;61.00;;;;;;5010676;28;20029;-70
2022/03/27 09:27:30;;;;;;;22.60;13.98;;;18.60;60.20;;;;;;5012080;28;20037;-71
2022/03/27 09:30:00;;;;;;;28.42;16.60;;;18.70;59.70;;;;;;5012337;28;20103;-69
2022/03/27 09:32:35;;;;;;;28.13;15.38;;;18.70;59.20;;;;;;5012493;28;20148;-70
2022/03/27 09:35:06;;;;;;;25.48;15.52;;;18.60;58.30;;;;;;5012790;28;20057;-71
2022/03/27 09:37:38;;;;;;;22.77;13.07;;;18.80;57.90;;;;;;5012426;28;20392;-70
2022/03/27 09:40:06;;;;;;;24.58;12.90;;;18.70;58.90;;;;;;5012314;28;20094;-71
2022/03/27 09:42:32;;;;;;;22.70;13.52;;;18.80;58.80;;;;;;5012423;28;20037;-71
2022/03/27 09:45:21;;;;;;;27.52;12.40;;;18.80;57.40;;;;;;5011998;28;20099;-71
2022/03/27 09:47:53;;;;;;;25.65;12.60;;;18.70;57.80;;;;;;5012549;28;20408;-72
2022/03/27 09:50:32;;;;;;;25.65;14.15;;;18.60;57.50;;;;;;5012268;28;20053;-71
2022/03/27 09:53:29;;;;;;;24.58;13.27;;;18.80;60.80;;;;;;5011776;28;20444;-71
2022/03/27 09:55:59;;;;;;;23.60;12.38;;;19.10;58.40;;;;;;5012361;28;20044;-71
2022/03/27 09:58:45;;;;;;;23.25;13.68;;;19.30;58.00;;;;;;5011582;28;20030;-70
2022/03/27 10:01:16;;;;;;;21.50;13.10;;;19.30;58.60;;;;;;5011756;28;20030;-72
2022/03/27 10:04:03;;;;;;;24.58;13.63;;;19.40;58.50;;;;;;5011800;28;20105;-71
2022/03/27 10:06:37;;;;;;;22.88;13.55;;;19.20;56.70;;;;;;5011215;28;20430;-71
2022/03/27 10:09:07;;;;;;;22.95;12.27;;;19.20;56.90;;;;;;5011305;28;20038;-71
2022/03/27 10:11:34;;;;;;;22.20;12.80;;;19.10;58.40;;;;;;5011914;28;20079;-71
2022/03/27 10:14:01;;;;;;;23.88;12.88;;;19.20;59.40;;;;;;5011570;28;20026;-72
2022/03/27 10:16:30;;;;;;;22.77;12.70;;;19.40;60.20;;;;;;5011460;28;20112;-71
2022/03/27 10:19:04;;;;;;;24.40;12.93;;;19.40;57.20;;;;;;5011783;28;20029;-70
2022/03/27 10:21:32;;;;;;;25.10;14.00;;;19.40;57.30;;;;;;5011723;28;20022;-71
2022/03/27 10:24:16;;;;;;;22.98;13.27;;;19.50;58.90;;;;;;5011792;28;20061;-71
2022/03/27 10:26:44;;;;;;;24.27;13.95;;;19.60;57.50;;;;;;5011276;28;20154;-70
2022/03/27 10:29:11;;;;;;;22.92;12.38;;;19.60;57.10;;;;;;5010821;28;20537;-71
2022/03/27 10:31:38;;;;;;;29.80;13.07;;;19.60;56.40;;;;;;5011612;28;20065;-72
2022/03/27 10:34:07;;;;;;;27.20;15.10;;;19.80;58.50;;;;;;5011513;28;20117;-71
2022/03/27 10:36:59;;;;;;;24.88;13.10;;;19.50;55.50;;;;;;5011858;28;20029;-72
2022/03/27 10:39:52;;;;;;;25.77;13.00;;;19.40;58.80;;;;;;5011436;28;20033;-72
2022/03/27 10:42:37;;;;;;;22.95;11.57;;;19.70;58.80;;;;;;5011760;28;20255;-72
2022/03/27 10:45:15;;;;;;;28.13;14.77;;;19.80;56.60;;;;;;5011716;28;20060;-72
2022/03/27 10:47:41;;;;;;;24.33;13.32;;;19.70;54.90;;;;;;5011363;28;20038;-73
2022/03/27 10:50:08;;;;;;;28.33;12.98;;;19.60;55.10;;;;;;5011580;28;20089;-73
2022/03/27 10:52:56;;;;;;;25.13;12.63;;;19.90;59.20;;;;;;5011231;28;20582;-72
2022/03/27 10:55:34;;;;;;;20.90;12.02;;;20.10;57.80;;;;;;5010981;28;20083;-72
2022/03/27 10:58:00;;;;;;;21.63;11.52;;;19.90;55.60;;;;;;5010902;28;20085;-72
2022/03/27 11:00:40;;;;;;;17.42;8.63;;;20.00;56.50;;;;;;5011421;28;20034;-73
2022/03/27 11:03:06;;;;;;;15.15;8.75;;;19.80;54.30;;;;;;5010236;28;20450;-72
2022/03/27 11:05:35;;;;;;;14.43;7.28;;;20.00;57.30;;;;;;5011927;28;20041;-72
2022/03/27 11:08:16;;;;;;;16.25;8.63;;;19.80;55.50;;;;;;5011488;28;20559;-72
2022/03/27 11:10:50;;;;;;;16.40;8.32;;;19.80;56.60;;;;;;5011323;28;20029;-71
2022/03/27 11:13:25;;;;;;;17.77;7.60;;;19.90;55.30;;;;;;5010281;28;20108;-67
2022/03/27 11:16:10;;;;;;;19.23;7.90;;;20.00;55.00;;;;;;5011597;28;20026;-72
2022/03/27 11:18:41;;;;;;;18.60;8.30;;;20.00;55.80;;;;;;5010601;28;20103;-73
2022/03/27 11:21:09;;;;;;;18.17;8.07;;;20.00;54.50;;;;;;5011190;28;20519;-72
2022/03/27 11:23:38;;;;;;;13.38;6.32;;;19.80;56.20;;;;;;5010929;28;20026;-73
2022/03/27 11:26:27;;;;;;;15.30;7.55;;;19.90;55.90;;;;;;5013704;28;20038;-73
2022/03/27 11:29:19;;;;;;;12.95;6.63;;;19.80;55.40;;;;;;5014938;28;20045;-72
2022/03/27 11:32:02;;;;;;;18.50;8.02;;;20.00;55.80;;;;;;5014524;28;20034;-72
2022/03/27 11:34:28;;;;;;;13.48;7.20;;;19.90;55.40;;;;;;5014866;28;20101;-73
2022/03/27 11:37:33;;;;;;;13.35;7.47;;;20.20;57.70;;;;;;5014196;28;20516;-72
2022/03/27 11:39:59;;;;;;;13.43;6.38;;;20.10;54.70;;;;;;5011117;28;20029;-73
2022/03/27 11:42:33;;;;;;;20.70;7.05;;;20.20;55.90;;;;;;5011898;28;20045;-72
2022/03/27 11:45:09;;;;;;;15.93;7.18;;;20.00;54.90;;;;;;5012174;28;20053;-72
2022/03/27 11:47:41;;;;;;;14.45;7.60;;;20.00;56.20;;;;;;5012124;28;20113;-73
2022/03/27 11:50:08;;;;;;;15.38;7.93;;;20.00;55.60;;;;;;5012261;28;20034;-71
2022/03/27 11:52:35;;;;;;;16.00;7.03;;;19.90;55.30;;;;;;5011745;28;20048;-73
2022/03/27 11:55:12;;;;;;;12.98;7.32;;;19.90;56.50;;;;;;5012008;28;20061;-72
2022/03/27 11:57:44;;;;;;;14.43;7.03;;;20.00;56.50;;;;;;5011974;28;20096;-72
2022/03/27 12:00:12;;;;;;;17.27;8.27;;;19.80;56.00;;;;;;5011868;28;20045;-72
2022/03/27 12:02:43;;;;;;;17.35;8.52;;;19.90;55.20;;;;;;5011689;28;20592;-72
2022/03/27 12:05:13;;;;;;;13.53;7.83;;;20.00;57.00;;;;;;5011581;28;20108;-72
2022/03/27 12:07:55;;;;;;;14.15;7.15;;;20.00;56.60;;;;;;5010757;28;20087;-70
2022/03/27 12:10:22;;;;;;;9.75;5.13;;;20.20;56.40;;;;;;5011755;28;20041;-72
2022/03/27 12:13:08;;;;;;;15.40;5.20;;;20.10;55.50;;;;;;5013331;28;20056;-73
2022/03/27 12:15:41;;;;;;;12.55;5.68;;;20.20;55.90;;;;;;5013461;28;20100;-70
2022/03/27 12:18:07;;;;;;;11.93;5.40;;;20.20;55.00;;;;;;5012901;28;20034;-73
2022/03/27 12:21:00;;;;;;;11.35;5.68;;;20.10;57.20;;;;;;5013871;28;20088;-73
2022/03/27 12:23:29;;;;;;;10.80;5.30;;;20.20;57.10;;;;;;5013422;28;20040;-72
2022/03/27 12:32:11;;;;;;;9.27;4.72;;;20.40;57.30;;;;;;5013972;28;20365;-73
2022/03/27 12:34:45;;;;;;;10.23;4.63;;;20.30;56.90;;;;;;5013122;28;20030;-72
2022/03/27 12:37:21;;;;;;;13.48;4.05;;;20.30;56.50;;;;;;5012525;28;20032;-72
2022/03/27 12:39:46;;;;;;;10.02;3.88;;;20.50;57.30;;;;;;5013809;28;20033;-73
2022/03/27 12:42:36;;;;;;;8.50;4.00;;;20.50;55.80;;;;;;5013796;28;20022;-72
2022/03/27 12:45:06;;;;;;;13.18;5.45;;;20.70;58.10;;;;;;5013076;28;20058;-72
2022/03/27 12:47:36;;;;;;;8.32;5.30;;;20.60;56.30;;;;;;5012966;28;20117;-72
2022/03/27 12:50:04;;;;;;;18.00;4.68;;;20.80;56.70;;;;;;5012633;28;20026;-73
2022/03/27 12:52:30;;;;;;;11.85;5.32;;;21.00;58.70;;;;;;5012565;28;20021;-73
2022/03/27 12:55:04;;;;;;;7.60;4.13;;;21.00;56.50;;;;;;5012668;28;20060;-73